createdAt,value
2024-01-28T00:02:17.463Z,7.72
2024-01-28T00:04:45.252Z,7.43
2024-01-28T00:07:12.783Z,8.55
2024-01-28T00:09:43.282Z,6.75
2024-01-28T00:12:11.591Z,6.97
2024-01-28T00:14:39.751Z,5.88
2024-01-28T00:17:10.905Z,5.78
2024-01-28T00:19:39.973Z,6.80
2024-01-28T00:22:07.582Z,5.68
2024-01-28T00:24:35.219Z,5.35
2024-01-28T00:27:04.191Z,5.15
2024-01-28T00:29:31.680Z,5.45
2024-01-28T00:32:00.218Z,5.97
2024-01-28T00:34:28.277Z,5.95
2024-01-28T00:36:55.942Z,5.47
2024-01-28T00:39:23.657Z,6.00
2024-01-28T00:41:51.153Z,6.15
2024-01-28T00:44:20.250Z,7.07
2024-01-28T00:46:47.879Z,6.65
2024-01-28T00:49:15.732Z,5.80
2024-01-28T00:51:43.835Z,6.85
2024-01-28T00:54:11.396Z,6.72
2024-01-28T00:56:39.024Z,6.93
2024-01-28T00:59:06.634Z,7.25
2024-01-28T01:01:35.465Z,6.50
2024-01-28T01:04:03.160Z,6.20
2024-01-28T01:06:30.849Z,6.50
2024-01-28T01:08:58.443Z,5.68
2024-01-28T01:11:25.944Z,5.68
2024-01-28T01:13:53.726Z,5.53
2024-01-28T01:16:21.172Z,5.50
2024-01-28T01:18:50.016Z,5.97
2024-01-28T01:21:17.791Z,6.85
2024-01-28T01:23:45.408Z,5.88
2024-01-28T01:26:12.911Z,5.82
2024-01-28T01:28:40.527Z,5.40
2024-01-28T01:31:08.014Z,5.93
2024-01-28T01:33:35.593Z,5.68
2024-01-28T01:36:07.099Z,6.43
2024-01-28T01:38:34.716Z,7.50
2024-01-28T01:41:02.362Z,6.05
2024-01-28T01:43:31.675Z,6.63
2024-01-28T01:45:59.501Z,6.38
2024-01-28T01:48:28.283Z,7.30
2024-01-28T01:50:56.367Z,7.80
2024-01-28T01:53:25.295Z,7.30
2024-01-28T01:55:52.951Z,6.55
2024-01-28T01:58:21.485Z,5.82
2024-01-28T02:00:49.039Z,6.88
2024-01-28T02:03:16.791Z,6.03
2024-01-28T02:05:44.722Z,6.05
2024-01-28T02:08:12.361Z,6.30
2024-01-28T02:10:41.211Z,6.45
2024-01-28T02:13:08.747Z,6.30
2024-01-28T02:15:40.165Z,5.68
2024-01-28T02:18:08.494Z,6.55
2024-01-28T02:20:36.242Z,5.70
2024-01-28T02:23:05.872Z,6.85
2024-01-28T02:25:35.219Z,6.35
2024-01-28T02:28:02.771Z,6.78
2024-01-28T02:30:30.669Z,6.88
2024-01-28T02:32:58.354Z,7.28
2024-01-28T02:35:26.413Z,7.55
2024-01-28T02:37:53.951Z,6.85
2024-01-28T02:40:21.861Z,7.50
2024-01-28T02:42:51.013Z,7.22
2024-01-28T02:45:19.618Z,7.07
2024-01-28T02:47:47.244Z,6.82
2024-01-28T02:50:14.850Z,7.85
2024-01-28T02:52:42.420Z,6.93
2024-01-28T02:55:10.974Z,6.93
2024-01-28T02:57:38.551Z,7.68
2024-01-28T03:00:09.044Z,7.30
2024-01-28T03:02:36.662Z,7.15
2024-01-28T03:05:04.343Z,6.72
2024-01-28T03:07:32.076Z,6.88
2024-01-28T03:09:59.639Z,7.00
2024-01-28T03:12:27.253Z,7.22
2024-01-28T03:14:54.819Z,7.57
2024-01-28T03:17:23.625Z,6.63
2024-01-28T03:19:51.518Z,7.38
2024-01-28T03:22:19.127Z,7.38
2024-01-28T03:24:48.447Z,7.72
2024-01-28T03:27:16.206Z,7.32
2024-01-28T03:29:43.923Z,6.85
2024-01-28T03:32:11.481Z,7.45
2024-01-28T03:34:40.536Z,8.73
2024-01-28T03:37:08.275Z,8.02
2024-01-28T03:39:35.809Z,7.00
2024-01-28T03:42:03.319Z,6.63
2024-01-28T03:44:30.942Z,6.97
2024-01-28T03:46:59.387Z,7.03
2024-01-28T03:49:28.569Z,7.07
2024-01-28T03:51:57.592Z,7.75
2024-01-28T03:54:25.176Z,8.55
2024-01-28T03:56:52.928Z,7.47
2024-01-28T03:59:20.521Z,8.43
2024-01-28T04:01:48.171Z,8.82
2024-01-28T04:04:15.822Z,8.32
2024-01-28T04:06:44.844Z,8.25
2024-01-28T04:09:14.605Z,8.32
2024-01-28T04:11:42.260Z,8.73
2024-01-28T04:14:09.861Z,9.98
2024-01-28T04:16:37.393Z,9.55
2024-01-28T04:19:04.988Z,9.38
2024-01-28T04:21:34.378Z,10.52
2024-01-28T04:24:02.192Z,9.85
2024-01-28T04:26:31.082Z,10.05
2024-01-28T04:28:58.575Z,10.25
2024-01-28T04:31:27.819Z,10.65
2024-01-28T04:33:55.896Z,11.07
2024-01-28T04:36:23.536Z,11.20
2024-01-28T04:38:51.098Z,10.95
2024-01-28T04:41:18.657Z,11.15
2024-01-28T04:43:47.849Z,10.82
2024-01-28T04:46:17.546Z,11.02
2024-01-28T04:48:45.306Z,10.25
2024-01-28T04:51:13.294Z,9.23
2024-01-28T04:53:40.828Z,8.68
2024-01-28T04:56:08.578Z,9.35
2024-01-28T04:58:36.057Z,9.38
2024-01-28T05:01:05.359Z,10.05
2024-01-28T05:03:33.188Z,8.15
2024-01-28T05:06:00.870Z,8.27
2024-01-28T05:08:28.395Z,8.02
2024-01-28T05:10:55.908Z,8.35
2024-01-28T05:13:23.427Z,7.68
2024-01-28T05:15:51.549Z,6.95
2024-01-28T05:18:20.821Z,8.57
2024-01-28T05:20:48.518Z,7.85
2024-01-28T05:23:16.125Z,8.23
2024-01-28T05:25:43.842Z,8.07
2024-01-28T05:28:11.360Z,7.82
2024-01-28T05:30:38.937Z,7.65
2024-01-28T05:33:07.343Z,7.88
2024-01-28T05:35:36.254Z,9.40
2024-01-28T05:38:04.451Z,8.82
2024-01-28T05:40:31.947Z,9.73
2024-01-28T05:42:59.495Z,9.48
2024-01-28T05:45:27.088Z,10.23
2024-01-28T05:47:54.862Z,10.88
2024-01-28T05:50:22.506Z,10.30
2024-01-28T05:52:51.302Z,10.43
2024-01-28T05:55:18.850Z,10.93
2024-01-28T05:57:46.389Z,11.68
2024-01-28T06:00:16.035Z,12.38
2024-01-28T06:02:44.515Z,12.13
2024-01-28T06:05:12.071Z,12.73
2024-01-28T06:07:39.621Z,12.50
2024-01-28T06:10:09.384Z,12.25
2024-01-28T06:12:36.983Z,12.13
2024-01-28T06:15:08.382Z,12.73
2024-01-28T06:17:37.338Z,13.43
2024-01-28T06:20:06.216Z,10.23
2024-01-28T06:22:33.798Z,10.43
2024-01-28T06:25:03.698Z,8.63
2024-01-28T06:27:32.642Z,10.25
2024-01-28T06:30:00.247Z,12.43
2024-01-28T06:32:27.991Z,12.73
2024-01-28T06:34:55.673Z,12.40
2024-01-28T06:37:23.247Z,12.40
2024-01-28T06:39:53.097Z,13.40
2024-01-28T06:42:21.132Z,11.77
2024-01-28T06:44:49.953Z,12.60
2024-01-28T06:47:17.878Z,10.40
2024-01-28T06:49:47.017Z,9.45
2024-01-28T06:52:14.797Z,9.85
2024-01-28T06:54:46.648Z,13.35
2024-01-28T06:57:14.841Z,13.98
2024-01-28T06:59:44.269Z,16.40
2024-01-28T07:02:13.542Z,15.80
2024-01-28T07:04:41.214Z,16.48
2024-01-28T07:07:09.275Z,17.65
2024-01-28T07:09:36.870Z,16.33
2024-01-28T07:12:05.282Z,18.05
2024-01-28T07:14:32.766Z,18.15
2024-01-28T07:17:00.609Z,18.60
2024-01-28T07:19:29.561Z,18.40
2024-01-28T07:21:57.183Z,17.20
2024-01-28T07:24:24.852Z,15.40
2024-01-28T07:26:52.574Z,15.48
2024-01-28T07:29:20.318Z,14.10
2024-01-28T07:31:47.829Z,13.50
2024-01-28T07:34:19.342Z,12.80
2024-01-28T07:39:16.340Z,13.45
2024-01-28T07:41:43.932Z,14.75
2024-01-28T07:44:11.484Z,14.00
2024-01-28T07:46:39.675Z,15.77
2024-01-28T07:49:07.581Z,14.23
2024-01-28T07:51:35.228Z,14.00
2024-01-28T07:54:04.141Z,12.25
2024-01-28T07:56:31.650Z,13.23
2024-01-28T07:58:59.155Z,12.23
2024-01-28T08:01:27.935Z,11.10
2024-01-28T08:03:55.539Z,10.60
2024-01-28T08:06:24.047Z,9.75
2024-01-28T08:08:51.867Z,9.60
2024-01-28T08:11:20.834Z,8.15
2024-01-28T08:13:49.423Z,9.00
2024-01-28T08:16:17.379Z,8.75
2024-01-28T08:18:45.293Z,8.70
2024-01-28T08:21:13.430Z,7.93
2024-01-28T08:23:40.945Z,7.97
2024-01-28T08:26:09.297Z,8.77
2024-01-28T08:28:38.203Z,8.75
2024-01-28T08:31:06.094Z,8.95
2024-01-28T08:33:33.710Z,8.88
2024-01-28T08:36:01.250Z,9.02
2024-01-28T08:38:30.353Z,8.23
2024-01-28T08:40:57.922Z,8.40
2024-01-28T08:43:25.581Z,7.55
2024-01-28T08:45:54.526Z,8.63
2024-01-28T08:48:22.611Z,8.77
2024-01-28T08:50:50.357Z,8.30
2024-01-28T08:53:17.864Z,7.85
2024-01-28T08:55:45.386Z,7.20
2024-01-28T08:58:12.987Z,7.18
2024-01-28T09:00:40.662Z,8.70
2024-01-28T09:03:09.711Z,8.85
2024-01-28T09:05:37.323Z,7.85
2024-01-28T09:08:05.197Z,7.57
2024-01-28T09:10:32.878Z,9.18
2024-01-28T09:13:00.493Z,7.93
2024-01-28T09:15:28.127Z,8.32
2024-01-28T09:17:55.816Z,8.80
2024-01-28T09:20:24.741Z,8.27
2024-01-28T09:22:52.425Z,7.80
2024-01-28T09:25:20.008Z,7.78
2024-01-28T09:27:50.185Z,7.35
2024-01-28T09:30:18.654Z,7.90
2024-01-28T09:32:48.180Z,8.70
2024-01-28T09:35:15.957Z,7.85
2024-01-28T09:37:44.796Z,8.63
2024-01-28T09:40:13.837Z,8.13
2024-01-28T09:42:45.562Z,7.68
2024-01-28T09:47:40.847Z,7.78
2024-01-28T09:50:10.824Z,7.60
2024-01-28T09:52:38.342Z,7.78
2024-01-28T09:55:07.795Z,8.07
2024-01-28T09:57:35.720Z,7.70
2024-01-28T10:00:03.565Z,7.82
2024-01-28T10:02:31.727Z,7.43
2024-01-28T10:04:59.233Z,6.47
2024-01-28T10:07:26.744Z,7.45
2024-01-28T10:09:54.491Z,7.20
2024-01-28T10:12:23.498Z,7.55
2024-01-28T10:14:51.944Z,7.30
2024-01-28T10:17:22.365Z,7.47
2024-01-28T10:19:49.931Z,7.03
2024-01-28T10:22:17.508Z,7.05
2024-01-28T10:24:45.991Z,6.65
2024-01-28T10:27:14.159Z,6.65
2024-01-28T10:29:44.724Z,7.15
2024-01-28T10:32:12.353Z,6.95
2024-01-28T10:34:41.064Z,6.43
2024-01-28T10:37:12.019Z,7.35
2024-01-28T10:39:41.927Z,4.22
2024-01-28T10:42:10.779Z,6.38
2024-01-28T10:44:42.955Z,6.53
2024-01-28T10:47:14.522Z,5.82
2024-01-28T10:49:43.751Z,6.95
2024-01-28T10:52:12.407Z,6.70
2024-01-28T10:54:40.956Z,6.38
2024-01-28T10:57:10.154Z,6.75
2024-01-28T10:59:39.324Z,5.90
2024-01-28T11:02:08.097Z,6.65
2024-01-28T11:04:37.805Z,6.55
2024-01-28T11:07:07.001Z,5.32
2024-01-28T11:09:34.840Z,5.97
2024-01-28T11:12:02.444Z,5.95
2024-01-28T11:14:29.994Z,5.55
2024-01-28T11:16:58.126Z,6.05
2024-01-28T11:19:28.912Z,5.72
2024-01-28T11:21:59.452Z,3.67
2024-01-28T11:24:27.018Z,4.55
2024-01-28T11:26:57.938Z,5.03
2024-01-28T11:29:33.701Z,5.77
2024-01-28T11:32:05.611Z,4.93
2024-01-28T11:34:33.727Z,4.95
2024-01-28T11:37:02.727Z,5.13
2024-01-28T11:39:38.400Z,5.70
2024-01-28T11:42:06.349Z,4.80
2024-01-28T11:44:40.962Z,5.20
2024-01-28T11:47:11.735Z,5.20
2024-01-28T11:49:39.381Z,5.28
2024-01-28T11:52:10.158Z,4.03
2024-01-28T11:54:37.961Z,3.95
2024-01-28T11:57:06.731Z,4.68
2024-01-28T11:59:35.704Z,4.75
2024-01-28T12:02:03.834Z,4.78
2024-01-28T12:04:32.462Z,5.85
2024-01-28T12:07:00.168Z,4.38
2024-01-28T12:09:31.084Z,4.78
2024-01-28T12:11:58.811Z,3.77
2024-01-28T12:14:26.447Z,5.30
2024-01-28T12:16:54.070Z,5.40
2024-01-28T12:19:21.708Z,5.05
2024-01-28T12:21:49.360Z,4.38
2024-01-28T12:24:16.911Z,5.20
2024-01-28T12:26:46.803Z,5.28
2024-01-28T12:29:14.802Z,4.72
2024-01-28T12:31:42.367Z,5.18
2024-01-28T12:34:15.777Z,5.22
2024-01-28T12:36:43.487Z,5.50
2024-01-28T12:39:11.027Z,5.28
2024-01-28T12:41:39.618Z,5.15
2024-01-28T12:44:09.529Z,4.40
2024-01-28T12:46:37.097Z,4.45
2024-01-28T12:49:07.372Z,5.28
2024-01-28T12:51:36.884Z,4.47
2024-01-28T12:54:04.727Z,4.97
2024-01-28T12:56:32.313Z,5.45
2024-01-28T12:59:00.176Z,4.43
2024-01-28T13:01:29.095Z,4.47
2024-01-28T13:03:56.743Z,4.95
2024-01-28T13:06:27.151Z,4.00
2024-01-28T13:08:55.045Z,4.30
2024-01-28T13:11:22.654Z,4.03
2024-01-28T13:13:50.143Z,4.75
2024-01-28T13:16:17.965Z,4.25
2024-01-28T13:18:48.197Z,3.90
2024-01-28T13:21:15.920Z,4.88
2024-01-28T13:23:43.503Z,4.53
2024-01-28T13:26:11.005Z,4.13
2024-01-28T13:28:38.517Z,5.45
2024-01-28T13:31:06.271Z,5.18
2024-01-28T13:33:33.943Z,4.60
2024-01-28T13:36:02.985Z,4.38
2024-01-28T13:38:30.548Z,4.00
2024-01-28T13:40:58.045Z,3.90
2024-01-28T13:43:25.641Z,4.10
2024-01-28T13:45:53.305Z,4.25
2024-01-28T13:48:21.099Z,4.10
2024-01-28T13:50:48.721Z,4.00
2024-01-28T13:53:17.576Z,4.38
2024-01-28T13:55:45.225Z,4.13
2024-01-28T13:58:12.889Z,3.85
2024-01-28T14:00:41.444Z,3.47
2024-01-28T14:03:09.801Z,3.78
2024-01-28T14:05:38.612Z,3.75
2024-01-28T14:08:06.524Z,3.72
2024-01-28T14:10:35.533Z,3.80
2024-01-28T14:13:03.114Z,3.40
2024-01-28T14:15:30.791Z,3.50
2024-01-28T14:17:58.454Z,4.07
2024-01-28T14:20:26.005Z,3.47
2024-01-28T14:22:53.559Z,3.28
2024-01-28T14:25:21.487Z,3.25
2024-01-28T14:27:50.376Z,3.15
2024-01-28T14:30:18.134Z,3.30
2024-01-28T14:32:48.746Z,2.97
2024-01-28T14:35:17.049Z,3.63
2024-01-28T14:37:44.692Z,3.63
2024-01-28T14:40:12.647Z,4.57
2024-01-28T14:42:40.386Z,4.35
2024-01-28T14:45:12.534Z,3.28
2024-01-28T14:47:40.350Z,4.22
2024-01-28T14:50:08.377Z,3.47
2024-01-28T14:52:35.828Z,3.05
2024-01-28T14:55:03.495Z,3.60
2024-01-28T14:57:31.086Z,4.05
2024-01-28T14:59:58.583Z,3.20
2024-01-28T15:02:30.333Z,3.72
2024-01-28T15:07:25.780Z,3.10
2024-01-28T15:09:53.591Z,2.90
2024-01-28T15:12:22.753Z,4.00
2024-01-28T15:14:51.354Z,3.53
2024-01-28T15:17:18.897Z,3.55
2024-01-28T15:19:47.715Z,3.83
2024-01-28T15:22:15.273Z,3.60
2024-01-28T15:24:43.094Z,3.30
2024-01-28T15:27:10.612Z,3.25
2024-01-28T15:29:38.089Z,3.83
2024-01-28T15:32:06.359Z,3.85
2024-01-28T15:34:33.895Z,4.65
2024-01-28T15:37:02.807Z,4.40
2024-01-28T15:39:30.471Z,3.90
2024-01-28T15:41:58.048Z,5.18
2024-01-28T15:44:25.542Z,4.85
2024-01-28T15:46:53.346Z,4.10
2024-01-28T15:49:21.104Z,5.68
2024-01-28T15:51:48.756Z,5.05
2024-01-28T15:54:17.636Z,4.40
2024-01-28T15:56:45.167Z,3.20
2024-01-28T15:59:12.690Z,3.10
2024-01-28T16:01:40.233Z,2.95
2024-01-28T16:04:07.924Z,3.13
2024-01-28T16:06:35.692Z,3.75
2024-01-28T16:09:03.255Z,3.42
2024-01-28T16:11:32.025Z,3.83
2024-01-28T16:13:59.601Z,4.88
2024-01-28T16:16:27.211Z,5.60
2024-01-28T16:18:55.197Z,5.45
2024-01-28T16:21:23.257Z,4.72
2024-01-28T16:23:50.793Z,4.32
2024-01-28T16:26:18.263Z,4.88
2024-01-28T16:28:48.356Z,4.80
2024-01-28T16:31:17.399Z,5.22
2024-01-28T16:33:45.131Z,6.22
2024-01-28T16:36:14.806Z,6.10
2024-01-28T16:38:42.335Z,7.30
2024-01-28T16:41:09.896Z,6.07
2024-01-28T16:43:37.420Z,5.20
2024-01-28T16:46:06.622Z,5.22
2024-01-28T16:48:34.211Z,6.38
2024-01-28T16:51:01.805Z,5.53
2024-01-28T16:53:29.301Z,5.72
2024-01-28T16:55:56.817Z,5.25
2024-01-28T16:58:24.469Z,5.60
2024-01-28T17:00:52.576Z,5.40
2024-01-28T17:03:21.513Z,5.93
2024-01-28T17:05:49.651Z,5.85
2024-01-28T17:08:17.307Z,5.90
2024-01-28T17:10:44.921Z,6.13
2024-01-28T17:13:12.491Z,6.13
2024-01-28T17:15:40.027Z,7.40
2024-01-28T17:18:07.789Z,6.97
2024-01-28T17:20:36.971Z,6.50
2024-01-28T17:23:04.979Z,6.78
2024-01-28T17:25:32.620Z,7.30
2024-01-28T17:28:01.079Z,8.32
2024-01-28T17:30:28.828Z,7.63
2024-01-28T17:32:56.388Z,7.45
2024-01-28T17:35:24.147Z,7.07
2024-01-28T17:37:53.031Z,7.93
2024-01-28T17:40:20.600Z,7.72
2024-01-28T17:42:48.133Z,8.43
2024-01-28T17:45:15.989Z,7.97
2024-01-28T17:47:46.650Z,7.85
2024-01-28T17:52:42.834Z,8.50
2024-01-28T17:55:13.357Z,7.68
2024-01-28T17:57:40.850Z,8.85
2024-01-28T18:00:10.105Z,7.00
2024-01-28T18:02:37.810Z,6.25
2024-01-28T18:05:05.723Z,8.02
2024-01-28T18:07:33.244Z,8.38
2024-01-28T18:10:00.780Z,8.13
2024-01-28T18:12:29.626Z,7.72
2024-01-28T18:14:57.352Z,7.10
2024-01-28T18:17:25.686Z,8.27
2024-01-28T18:19:53.361Z,8.57
2024-01-28T18:22:20.897Z,7.90
2024-01-28T18:24:50.740Z,7.82
2024-01-28T18:27:18.626Z,7.85
2024-01-28T18:29:49.312Z,8.20
2024-01-28T18:32:16.954Z,8.48
2024-01-28T18:34:44.611Z,9.57
2024-01-28T18:37:12.421Z,9.05
2024-01-28T18:39:41.716Z,8.68
2024-01-28T18:42:09.316Z,9.18
2024-01-28T18:44:37.217Z,8.40
2024-01-28T18:47:07.178Z,8.88
2024-01-28T18:49:35.089Z,9.13
2024-01-28T18:52:02.671Z,8.25
2024-01-28T18:54:30.265Z,7.78
2024-01-28T18:56:57.936Z,7.88
2024-01-28T18:59:25.414Z,11.15
2024-01-28T19:01:53.061Z,20.60
2024-01-28T19:04:21.995Z,17.55
2024-01-28T19:06:49.639Z,15.70
2024-01-28T19:09:17.717Z,15.07
2024-01-28T19:11:45.315Z,15.05
2024-01-28T19:14:15.473Z,12.80
2024-01-28T19:16:43.239Z,10.45
2024-01-28T19:19:11.003Z,9.15
2024-01-28T19:21:40.584Z,7.97
2024-01-28T19:24:08.287Z,8.73
2024-01-28T19:26:35.795Z,9.55
2024-01-28T19:29:04.179Z,10.05
2024-01-28T19:31:31.701Z,8.73
2024-01-28T19:34:08.291Z,8.38
2024-01-28T19:36:37.026Z,8.95
2024-01-28T19:39:06.402Z,8.05
2024-01-28T19:41:33.948Z,8.00
2024-01-28T19:44:01.800Z,8.32
2024-01-28T19:46:30.454Z,10.05
2024-01-28T19:48:58.463Z,8.65
2024-01-28T19:51:27.833Z,8.75
2024-01-28T19:53:55.741Z,8.18
2024-01-28T19:56:24.824Z,8.05
2024-01-28T19:58:54.490Z,7.13
2024-01-28T20:01:22.909Z,8.52
2024-01-28T20:03:50.472Z,9.30
2024-01-28T20:06:27.905Z,8.30
2024-01-28T20:09:05.240Z,8.35
2024-01-28T20:11:34.910Z,9.25
2024-01-28T20:14:03.710Z,9.38
2024-01-28T20:16:31.424Z,9.73
2024-01-28T20:18:59.399Z,9.35
2024-01-28T20:21:27.234Z,7.95
2024-01-28T20:23:55.341Z,7.45
2024-01-28T20:26:23.020Z,7.20
2024-01-28T20:28:52.526Z,6.60
2024-01-28T20:31:21.594Z,7.80
2024-01-28T20:33:51.089Z,10.15
2024-01-28T20:36:21.112Z,9.25
2024-01-28T20:38:48.749Z,8.60
2024-01-28T20:41:16.835Z,8.50
2024-01-28T20:43:44.525Z,8.65
2024-01-28T20:46:13.366Z,8.95
2024-01-28T20:48:44.688Z,9.15
2024-01-28T20:51:12.384Z,8.05
2024-01-28T20:53:39.942Z,6.97
2024-01-28T20:56:09.776Z,7.50
2024-01-28T20:58:40.424Z,6.30
2024-01-28T21:01:08.917Z,6.70
2024-01-28T21:03:38.682Z,6.57
2024-01-28T21:06:06.982Z,6.75
2024-01-28T21:08:34.646Z,6.82
2024-01-28T21:11:05.602Z,6.35
2024-01-28T21:13:33.190Z,5.82
2024-01-28T21:16:01.027Z,6.35
2024-01-28T21:18:28.808Z,6.15
2024-01-28T21:20:57.675Z,7.28
2024-01-28T21:23:25.188Z,6.13
2024-01-28T21:25:54.122Z,6.13
2024-01-28T21:28:21.999Z,6.18
2024-01-28T21:30:49.613Z,5.88
2024-01-28T21:33:18.193Z,5.97
2024-01-28T21:35:46.017Z,5.95
2024-01-28T21:38:14.990Z,6.60
2024-01-28T21:40:42.483Z,6.78
2024-01-28T21:43:12.159Z,5.85
2024-01-28T21:45:39.738Z,6.15
2024-01-28T21:48:08.240Z,5.90
2024-01-28T21:50:36.034Z,5.13
2024-01-28T21:53:03.599Z,6.50
2024-01-28T21:55:32.442Z,6.43
2024-01-28T21:58:00.042Z,6.30
2024-01-28T22:00:27.782Z,6.70
2024-01-28T22:02:55.395Z,6.18
2024-01-28T22:05:22.887Z,6.50
2024-01-28T22:07:50.510Z,5.43
2024-01-28T22:10:18.611Z,6.07
2024-01-28T22:12:47.590Z,5.85
2024-01-28T22:15:15.228Z,7.07
2024-01-28T22:17:42.755Z,5.75
2024-01-28T22:20:12.762Z,5.85
2024-01-28T22:22:40.353Z,6.50
2024-01-28T22:25:10.054Z,6.80
2024-01-28T22:27:37.773Z,6.22
2024-01-28T22:30:08.286Z,6.28
2024-01-28T22:32:35.830Z,6.60
2024-01-28T22:35:03.949Z,6.28
2024-01-28T22:37:31.611Z,6.40
2024-01-28T22:39:59.205Z,7.72
2024-01-28T22:42:26.891Z,7.20
2024-01-28T22:44:55.314Z,7.00
2024-01-28T22:47:24.160Z,7.75
2024-01-28T22:49:51.763Z,6.45
2024-01-28T22:52:19.351Z,6.32
2024-01-28T22:54:46.914Z,6.32
2024-01-28T22:57:15.116Z,7.15
2024-01-28T22:59:42.904Z,5.63
2024-01-28T23:02:12.012Z,7.15
2024-01-28T23:04:40.965Z,6.97
2024-01-28T23:07:08.551Z,6.75
2024-01-28T23:09:36.119Z,7.15
2024-01-28T23:12:03.860Z,6.72
2024-01-28T23:14:31.748Z,6.20
2024-01-28T23:16:59.312Z,6.78
2024-01-28T23:19:26.946Z,7.07
2024-01-28T23:21:56.076Z,7.05
2024-01-28T23:24:23.689Z,6.47
2024-01-28T23:26:51.719Z,6.85
2024-01-28T23:29:20.100Z,7.18
2024-01-28T23:31:48.610Z,6.72
2024-01-28T23:34:16.249Z,7.18
2024-01-28T23:36:43.819Z,6.93
2024-01-28T23:39:12.807Z,7.38
2024-01-28T23:41:41.426Z,7.35
2024-01-28T23:44:09.935Z,7.57
2024-01-28T23:46:39.927Z,6.97
2024-01-28T23:49:09.229Z,7.10
2024-01-28T23:51:36.831Z,7.25
2024-01-28T23:54:04.328Z,8.20
2024-01-28T23:56:33.148Z,8.00
2024-01-28T23:59:00.701Z,8.15
